sensor_id;sensor_type;location;lat;lon;timestamp;pressure;altitude;pressure_sealevel;temperature;humidity
69535;BME280;56754;51.568;5.048;2023-02-14T00:01:34;103397.44;;;11.80;61.57
69535;BME280;56754;51.568;5.048;2023-02-14T00:03:59;103395.25;;;11.77;61.78
69535;BME280;56754;51.568;5.048;2023-02-14T00:06:25;103392.28;;;11.73;61.70
69535;BME280;56754;51.568;5.048;2023-02-14T00:08:50;103395.75;;;11.69;61.74
69535;BME280;56754;51.568;5.048;2023-02-14T00:11:15;103398.94;;;11.66;62.12
69535;BME280;56754;51.568;5.048;2023-02-14T00:13:41;103393.50;;;11.60;61.88
69535;BME280;56754;51.568;5.048;2023-02-14T00:16:06;103400.19;;;11.58;61.64
69535;BME280;56754;51.568;5.048;2023-02-14T00:18:31;103407.91;;;11.54;62.05
69535;BME280;56754;51.568;5.048;2023-02-14T00:20:58;103392.59;;;11.50;62.26
69535;BME280;56754;51.568;5.048;2023-02-14T00:23:24;103396.03;;;11.45;62.26
69535;BME280;56754;51.568;5.048;2023-02-14T00:25:49;103393.03;;;11.42;62.19
69535;BME280;56754;51.568;5.048;2023-02-14T00:28:14;103389.00;;;11.39;62.30
69535;BME280;56754;51.568;5.048;2023-02-14T00:30:40;103390.31;;;11.36;62.73
69535;BME280;56754;51.568;5.048;2023-02-14T00:33:05;103386.50;;;11.32;62.53
69535;BME280;56754;51.568;5.048;2023-02-14T00:35:30;103391.56;;;11.29;63.02
69535;BME280;56754;51.568;5.048;2023-02-14T00:37:55;103387.22;;;11.23;62.36
69535;BME280;56754;51.568;5.048;2023-02-14T00:40:21;103377.00;;;11.20;62.46
69535;BME280;56754;51.568;5.048;2023-02-14T00:42:46;103381.25;;;11.15;62.92
69535;BME280;56754;51.568;5.048;2023-02-14T00:45:11;103377.22;;;11.13;62.75
69535;BME280;56754;51.568;5.048;2023-02-14T00:47:37;103372.34;;;11.10;62.94
69535;BME280;56754;51.568;5.048;2023-02-14T00:50:02;103376.34;;;11.07;62.86
69535;BME280;56754;51.568;5.048;2023-02-14T00:52:29;103372.28;;;11.05;62.79
69535;BME280;56754;51.568;5.048;2023-02-14T00:54:55;103376.78;;;10.99;62.73
69535;BME280;56754;51.568;5.048;2023-02-14T00:57:20;103371.91;;;10.96;62.96
69535;BME280;56754;51.568;5.048;2023-02-14T00:59:45;103363.00;;;10.90;62.83
69535;BME280;56754;51.568;5.048;2023-02-14T01:02:10;103368.06;;;10.87;63.18
69535;BME280;56754;51.568;5.048;2023-02-14T01:04:36;103369.13;;;10.86;63.01
69535;BME280;56754;51.568;5.048;2023-02-14T01:07:01;103374.16;;;10.82;63.32
69535;BME280;56754;51.568;5.048;2023-02-14T01:09:26;103374.63;;;10.79;63.30
69535;BME280;56754;51.568;5.048;2023-02-14T01:11:52;103371.44;;;10.77;63.14
69535;BME280;56754;51.568;5.048;2023-02-14T01:14:17;103368.19;;;10.75;63.70
69535;BME280;56754;51.568;5.048;2023-02-14T01:16:42;103364.94;;;10.73;63.82
69535;BME280;56754;51.568;5.048;2023-02-14T01:19:07;103372.66;;;10.69;63.36
69535;BME280;56754;51.568;5.048;2023-02-14T01:21:33;103362.44;;;10.66;63.27
69535;BME280;56754;51.568;5.048;2023-02-14T01:24:04;103374.44;;;10.64;64.02
69535;BME280;56754;51.568;5.048;2023-02-14T01:26:29;103364.25;;;10.61;64.15
69535;BME280;56754;51.568;5.048;2023-02-14T01:28:55;103372.53;;;10.59;64.00
69535;BME280;56754;51.568;5.048;2023-02-14T01:31:23;103373.03;;;10.56;63.92
69535;BME280;56754;51.568;5.048;2023-02-14T01:33:49;103373.25;;;10.55;64.18
69535;BME280;56754;51.568;5.048;2023-02-14T01:38:55;103370.25;;;10.51;63.95
69535;BME280;56754;51.568;5.048;2023-02-14T01:41:21;103377.72;;;10.49;64.45
69535;BME280;56754;51.568;5.048;2023-02-14T01:44:06;103379.00;;;10.46;64.31
69535;BME280;56754;51.568;5.048;2023-02-14T01:46:34;103376.59;;;10.45;64.11
69535;BME280;56754;51.568;5.048;2023-02-14T01:49:11;103376.03;;;10.43;64.31
69535;BME280;56754;51.568;5.048;2023-02-14T01:51:42;103378.38;;;10.39;64.09
69535;BME280;56754;51.568;5.048;2023-02-14T01:54:09;103379.69;;;10.37;64.31
69535;BME280;56754;51.568;5.048;2023-02-14T01:56:39;103379.09;;;10.35;64.21
69535;BME280;56754;51.568;5.048;2023-02-14T01:59:08;103382.84;;;10.34;64.51
69535;BME280;56754;51.568;5.048;2023-02-14T02:01:35;103376.94;;;10.32;64.56
69535;BME280;56754;51.568;5.048;2023-02-14T02:04:07;103379.53;;;10.27;64.17
69535;BME280;56754;51.568;5.048;2023-02-14T02:06:40;103375.19;;;10.25;64.39
69535;BME280;56754;51.568;5.048;2023-02-14T02:11:34;103371.16;;;10.23;64.77
69535;BME280;56754;51.568;5.048;2023-02-14T02:14:00;103366.06;;;10.21;64.70
69535;BME280;56754;51.568;5.048;2023-02-14T02:17:17;103361.78;;;10.20;64.97
69535;BME280;56754;51.568;5.048;2023-02-14T02:22:33;103365.97;;;10.16;64.67
69535;BME280;56754;51.568;5.048;2023-02-14T02:36:57;103352.69;;;10.05;64.77
69535;BME280;56754;51.568;5.048;2023-02-14T02:45:27;103348.09;;;10.00;65.60
69535;BME280;56754;51.568;5.048;2023-02-14T02:48:15;103345.66;;;9.98;65.03
69535;BME280;56754;51.568;5.048;2023-02-14T02:50:46;103341.59;;;9.96;64.97
69535;BME280;56754;51.568;5.048;2023-02-14T02:56:04;103346.41;;;9.94;65.08
69535;BME280;56754;51.568;5.048;2023-02-14T02:58:38;103346.41;;;9.94;65.48
69535;BME280;56754;51.568;5.048;2023-02-14T03:01:10;103336.75;;;9.93;65.47
69535;BME280;56754;51.568;5.048;2023-02-14T03:03:39;103346.63;;;9.92;65.45
69535;BME280;56754;51.568;5.048;2023-02-14T03:06:06;103345.03;;;9.91;65.75
69535;BME280;56754;51.568;5.048;2023-02-14T03:08:31;103346.41;;;9.94;65.67
69535;BME280;56754;51.568;5.048;2023-02-14T03:10:58;103347.91;;;9.90;64.76
69535;BME280;56754;51.568;5.048;2023-02-14T03:13:46;103341.19;;;9.87;65.11
69535;BME280;56754;51.568;5.048;2023-02-14T03:19:35;103348.91;;;9.84;64.63
69535;BME280;56754;51.568;5.048;2023-02-14T03:22:33;103343.81;;;9.82;65.10
69535;BME280;56754;51.568;5.048;2023-02-14T03:25:10;103341.94;;;9.83;65.01
69535;BME280;56754;51.568;5.048;2023-02-14T03:27:45;103337.88;;;9.80;65.83
69535;BME280;56754;51.568;5.048;2023-02-14T03:31:12;103335.22;;;9.80;65.43
69535;BME280;56754;51.568;5.048;2023-02-14T03:33:43;103347.19;;;9.77;65.56
69535;BME280;56754;51.568;5.048;2023-02-14T03:36:16;103340.47;;;9.75;65.50
69535;BME280;56754;51.568;5.048;2023-02-14T03:39:02;103339.66;;;9.74;64.87
69535;BME280;56754;51.568;5.048;2023-02-14T03:41:32;103349.53;;;9.74;65.79
69535;BME280;56754;51.568;5.048;2023-02-14T03:44:02;103347.91;;;9.73;65.52
69535;BME280;56754;51.568;5.048;2023-02-14T03:46:35;103349.78;;;9.72;66.07
69535;BME280;56754;51.568;5.048;2023-02-14T03:49:05;103347.56;;;9.69;64.93
69535;BME280;56754;51.568;5.048;2023-02-14T03:51:33;103345.97;;;9.68;65.52
69535;BME280;56754;51.568;5.048;2023-02-14T03:54:00;103345.16;;;9.68;65.62
69535;BME280;56754;51.568;5.048;2023-02-14T03:59:03;103351.78;;;9.65;65.89
69535;BME280;56754;51.568;5.048;2023-02-14T04:01:38;103341.34;;;9.64;65.92
69535;BME280;56754;51.568;5.048;2023-02-14T04:04:06;103348.53;;;9.63;65.64
69535;BME280;56754;51.568;5.048;2023-02-14T04:06:33;103347.97;;;9.61;66.11
69535;BME280;56754;51.568;5.048;2023-02-14T04:08:59;103347.16;;;9.61;66.02
69535;BME280;56754;51.568;5.048;2023-02-14T04:11:24;103342.06;;;9.59;65.79
69535;BME280;56754;51.568;5.048;2023-02-14T04:13:49;103347.41;;;9.59;65.96
69535;BME280;56754;51.568;5.048;2023-02-14T04:16:15;103350.56;;;9.56;65.67
69535;BME280;56754;51.568;5.048;2023-02-14T04:18:40;103347.91;;;9.56;65.52
69535;BME280;56754;51.568;5.048;2023-02-14T04:21:05;103347.31;;;9.54;66.09
69535;BME280;56754;51.568;5.048;2023-02-14T04:23:31;103351.06;;;9.53;66.08
69535;BME280;56754;51.568;5.048;2023-02-14T04:25:56;103352.91;;;9.52;66.38
69535;BME280;56754;51.568;5.048;2023-02-14T04:28:21;103348.88;;;9.50;65.96
69535;BME280;56754;51.568;5.048;2023-02-14T04:30:46;103350.69;;;9.49;66.39
69535;BME280;56754;51.568;5.048;2023-02-14T04:33:12;103341.88;;;9.49;65.01
69535;BME280;56754;51.568;5.048;2023-02-14T04:35:37;103345.63;;;9.48;65.68
69535;BME280;56754;51.568;5.048;2023-02-14T04:38:04;103350.16;;;9.47;66.03
69535;BME280;56754;51.568;5.048;2023-02-14T04:40:30;103348.50;;;9.46;65.94
69535;BME280;56754;51.568;5.048;2023-02-14T04:42:55;103348.50;;;9.46;65.85
69535;BME280;56754;51.568;5.048;2023-02-14T04:45:21;103347.16;;;9.44;66.05
69535;BME280;56754;51.568;5.048;2023-02-14T04:47:46;103347.16;;;9.44;66.54
69535;BME280;56754;51.568;5.048;2023-02-14T04:50:12;103345.50;;;9.43;66.39
69535;BME280;56754;51.568;5.048;2023-02-14T04:52:38;103341.22;;;9.42;66.49
69535;BME280;56754;51.568;5.048;2023-02-14T04:55:03;103335.91;;;9.42;66.09
69535;BME280;56754;51.568;5.048;2023-02-14T04:57:29;103336.97;;;9.41;66.29
69535;BME280;56754;51.568;5.048;2023-02-14T04:59:54;103339.84;;;9.39;66.63
69535;BME280;56754;51.568;5.048;2023-02-14T05:02:20;103336.38;;;9.39;65.79
69535;BME280;56754;51.568;5.048;2023-02-14T05:04:45;103333.13;;;9.37;66.48
69535;BME280;56754;51.568;5.048;2023-02-14T05:07:10;103338.47;;;9.37;66.46
69535;BME280;56754;51.568;5.048;2023-02-14T05:09:36;103328.84;;;9.36;66.17
69535;BME280;56754;51.568;5.048;2023-02-14T05:12:01;103331.50;;;9.36;66.46
69535;BME280;56754;51.568;5.048;2023-02-14T05:14:26;103334.19;;;9.36;66.54
69535;BME280;56754;51.568;5.048;2023-02-14T05:16:51;103336.84;;;9.36;66.61
69535;BME280;56754;51.568;5.048;2023-02-14T05:19:17;103330.94;;;9.33;65.94
69535;BME280;56754;51.568;5.048;2023-02-14T05:21:42;103332.81;;;9.33;66.64
69535;BME280;56754;51.568;5.048;2023-02-14T05:24:07;103331.41;;;9.30;65.74
69535;BME280;56754;51.568;5.048;2023-02-14T05:26:33;103316.47;;;9.29;66.26
69535;BME280;56754;51.568;5.048;2023-02-14T05:28:58;103324.47;;;9.29;66.06
69535;BME280;56754;51.568;5.048;2023-02-14T05:31:23;103321.00;;;9.29;66.59
69535;BME280;56754;51.568;5.048;2023-02-14T05:33:49;103325.50;;;9.28;66.55
69535;BME280;56754;51.568;5.048;2023-02-14T05:36:14;103326.56;;;9.27;66.27
69535;BME280;56754;51.568;5.048;2023-02-14T05:38:39;103331.31;;;9.25;66.32
69535;BME280;56754;51.568;5.048;2023-02-14T05:41:05;103329.69;;;9.24;66.52
69535;BME280;56754;51.568;5.048;2023-02-14T05:43:30;103327.84;;;9.25;66.49
69535;BME280;56754;51.568;5.048;2023-02-14T05:45:56;103328.09;;;9.23;66.42
69535;BME280;56754;51.568;5.048;2023-02-14T05:48:22;103331.78;;;9.22;66.25
69535;BME280;56754;51.568;5.048;2023-02-14T05:50:47;103329.94;;;9.23;66.57
69535;BME280;56754;51.568;5.048;2023-02-14T05:53:13;103322.97;;;9.22;66.23
69535;BME280;56754;51.568;5.048;2023-02-14T05:55:39;103328.56;;;9.20;66.93
69535;BME280;56754;51.568;5.048;2023-02-14T05:58:04;103330.66;;;9.18;66.72
69535;BME280;56754;51.568;5.048;2023-02-14T06:00:30;103329.03;;;9.17;67.05
69535;BME280;56754;51.568;5.048;2023-02-14T06:02:55;103326.59;;;9.16;66.88
69535;BME280;56754;51.568;5.048;2023-02-14T06:05:21;103331.94;;;9.16;66.87
69535;BME280;56754;51.568;5.048;2023-02-14T06:07:49;103335.88;;;9.13;66.84
69535;BME280;56754;51.568;5.048;2023-02-14T06:10:14;103339.34;;;9.14;67.11
69535;BME280;56754;51.568;5.048;2023-02-14T06:12:40;103328.13;;;9.11;66.66
69535;BME280;56754;51.568;5.048;2023-02-14T06:15:05;103334.50;;;9.10;66.94
69535;BME280;56754;51.568;5.048;2023-02-14T06:17:31;103331.03;;;9.10;66.70
69535;BME280;56754;51.568;5.048;2023-02-14T06:19:56;103335.78;;;9.08;67.15
69535;BME280;56754;51.568;5.048;2023-02-14T06:22:21;103334.16;;;9.07;65.89
69535;BME280;56754;51.568;5.048;2023-02-14T06:24:46;103338.69;;;9.06;66.61
69535;BME280;56754;51.568;5.048;2023-02-14T06:27:12;103334.44;;;9.05;66.75
69535;BME280;56754;51.568;5.048;2023-02-14T06:29:37;103338.38;;;9.03;66.71
69535;BME280;56754;51.568;5.048;2023-02-14T06:32:02;103341.03;;;9.03;67.12
69535;BME280;56754;51.568;5.048;2023-02-14T06:34:28;103336.72;;;9.02;66.56
69535;BME280;56754;51.568;5.048;2023-02-14T06:36:53;103345.00;;;9.00;67.17
69535;BME280;56754;51.568;5.048;2023-02-14T06:39:18;103342.53;;;8.99;67.13
69535;BME280;56754;51.568;5.048;2023-02-14T06:41:43;103339.31;;;8.97;67.26
69535;BME280;56754;51.568;5.048;2023-02-14T06:44:09;103344.66;;;8.97;67.37
69535;BME280;56754;51.568;5.048;2023-02-14T06:46:34;103343.25;;;8.94;67.03
69535;BME280;56754;51.568;5.048;2023-02-14T06:48:59;103333.19;;;8.96;67.39
69535;BME280;56754;51.568;5.048;2023-02-14T06:51:24;103337.13;;;8.94;67.13
69535;BME280;56754;51.568;5.048;2023-02-14T06:53:50;103340.81;;;8.93;67.30
69535;BME280;56754;51.568;5.048;2023-02-14T06:56:15;103339.44;;;8.90;66.94
69535;BME280;56754;51.568;5.048;2023-02-14T06:58:41;103333.88;;;8.92;66.57
69535;BME280;56754;51.568;5.048;2023-02-14T07:01:06;103340.00;;;8.92;67.30
69535;BME280;56754;51.568;5.048;2023-02-14T07:03:31;103332.00;;;8.92;67.24
69535;BME280;56754;51.568;5.048;2023-02-14T07:05:57;103332.47;;;8.89;66.76
69535;BME280;56754;51.568;5.048;2023-02-14T07:08:22;103334.34;;;8.88;67.20
69535;BME280;56754;51.568;5.048;2023-02-14T07:10:47;103333.53;;;8.88;66.83
69535;BME280;56754;51.568;5.048;2023-02-14T07:13:13;103330.88;;;8.88;67.00
69535;BME280;56754;51.568;5.048;2023-02-14T07:15:38;103328.44;;;8.86;67.18
69535;BME280;56754;51.568;5.048;2023-02-14T07:18:04;103337.22;;;8.87;66.93
69535;BME280;56754;51.568;5.048;2023-02-14T07:20:29;103338.28;;;8.86;67.63
69535;BME280;56754;51.568;5.048;2023-02-14T07:22:54;103333.75;;;8.86;67.07
69535;BME280;56754;51.568;5.048;2023-02-14T07:25:20;103333.22;;;8.84;67.12
69535;BME280;56754;51.568;5.048;2023-02-14T07:27:46;103336.69;;;8.85;67.32
69535;BME280;56754;51.568;5.048;2023-02-14T07:30:12;103334.81;;;8.85;67.49
69535;BME280;56754;51.568;5.048;2023-02-14T07:32:38;103332.16;;;8.85;67.66
69535;BME280;56754;51.568;5.048;2023-02-14T07:35:04;103338.88;;;8.88;67.57
69535;BME280;56754;51.568;5.048;2023-02-14T07:37:34;103333.28;;;8.89;67.52
69535;BME280;56754;51.568;5.048;2023-02-14T07:40:00;103335.41;;;8.87;67.11
69535;BME280;56754;51.568;5.048;2023-02-14T07:42:25;103333.75;;;8.86;67.09
69535;BME280;56754;51.568;5.048;2023-02-14T07:44:51;103341.22;;;8.84;67.19
69535;BME280;56754;51.568;5.048;2023-02-14T07:47:16;103336.91;;;8.83;66.68
69535;BME280;56754;51.568;5.048;2023-02-14T07:49:41;103335.03;;;8.84;67.24
69535;BME280;56754;51.568;5.048;2023-02-14T07:52:07;103340.94;;;8.98;67.22
69535;BME280;56754;51.568;5.048;2023-02-14T07:54:32;103335.03;;;9.24;66.03
69535;BME280;56754;51.568;5.048;2023-02-14T07:56:57;103344.47;;;9.44;65.30
69535;BME280;56754;51.568;5.048;2023-02-14T07:59:23;103344.75;;;9.59;65.02
69535;BME280;56754;51.568;5.048;2023-02-14T08:01:48;103347.34;;;9.71;64.33
69535;BME280;56754;51.568;5.048;2023-02-14T08:04:13;103341.84;;;9.77;64.27
69535;BME280;56754;51.568;5.048;2023-02-14T08:06:42;103341.69;;;9.84;63.83
69535;BME280;56754;51.568;5.048;2023-02-14T08:09:08;103347.91;;;9.90;64.10
69535;BME280;56754;51.568;5.048;2023-02-14T08:11:35;103344.53;;;9.94;63.81
69535;BME280;56754;51.568;5.048;2023-02-14T08:14:00;103344.84;;;9.98;63.65
69535;BME280;56754;51.568;5.048;2023-02-14T08:16:25;103352.38;;;10.01;63.71
69535;BME280;56754;51.568;5.048;2023-02-14T08:18:50;103350.03;;;10.05;63.68
69535;BME280;56754;51.568;5.048;2023-02-14T08:21:16;103348.75;;;10.07;63.54
69535;BME280;56754;51.568;5.048;2023-02-14T08:23:41;103353.84;;;10.09;63.42
69535;BME280;56754;51.568;5.048;2023-02-14T08:26:07;103351.50;;;10.12;63.41
69535;BME280;56754;51.568;5.048;2023-02-14T08:28:32;103352.03;;;10.14;63.13
69535;BME280;56754;51.568;5.048;2023-02-14T08:30:58;103351.00;;;10.15;63.06
69535;BME280;56754;51.568;5.048;2023-02-14T08:33:23;103356.66;;;10.19;63.21
69535;BME280;56754;51.568;5.048;2023-02-14T08:35:50;103347.59;;;10.20;63.02
69535;BME280;56754;51.568;5.048;2023-02-14T08:38:15;103351.63;;;10.22;62.89
69535;BME280;56754;51.568;5.048;2023-02-14T08:40:41;103348.72;;;10.24;63.03
69535;BME280;56754;51.568;5.048;2023-02-14T08:43:07;103353.63;;;10.27;63.05
69535;BME280;56754;51.568;5.048;2023-02-14T08:45:32;103340.00;;;10.29;63.15
69535;BME280;56754;51.568;5.048;2023-02-14T08:48:05;103347.53;;;10.32;62.98
69535;BME280;56754;51.568;5.048;2023-02-14T08:50:32;103342.75;;;10.34;62.88
69535;BME280;56754;51.568;5.048;2023-02-14T08:52:58;103343.31;;;10.36;62.79
69535;BME280;56754;51.568;5.048;2023-02-14T08:55:23;103342.25;;;10.37;62.60
69535;BME280;56754;51.568;5.048;2023-02-14T08:57:48;103339.09;;;10.40;62.71
69535;BME280;56754;51.568;5.048;2023-02-14T09:00:14;103336.41;;;10.40;62.45
69535;BME280;56754;51.568;5.048;2023-02-14T09:02:40;103333.25;;;10.43;62.46
69535;BME280;56754;51.568;5.048;2023-02-14T09:05:05;103337.53;;;10.44;62.45
69535;BME280;56754;51.568;5.048;2023-02-14T09:07:31;103332.75;;;10.46;62.33
69535;BME280;56754;51.568;5.048;2023-02-14T09:09:56;103337.59;;;10.49;62.33
69535;BME280;56754;51.568;5.048;2023-02-14T09:12:21;103336.31;;;10.52;62.35
69535;BME280;56754;51.568;5.048;2023-02-14T09:14:46;103335.00;;;10.54;62.17
69535;BME280;56754;51.568;5.048;2023-02-14T09:17:12;103332.91;;;10.56;62.16
69535;BME280;56754;51.568;5.048;2023-02-14T09:19:38;103328.91;;;10.59;62.09
69535;BME280;56754;51.568;5.048;2023-02-14T09:22:05;103332.16;;;10.61;61.94
69535;BME280;56754;51.568;5.048;2023-02-14T09:24:31;103326.56;;;10.62;61.96
69535;BME280;56754;51.568;5.048;2023-02-14T09:26:57;103334.91;;;10.66;61.61
69535;BME280;56754;51.568;5.048;2023-02-14T09:29:24;103326.59;;;10.67;61.82
69535;BME280;56754;51.568;5.048;2023-02-14T09:31:57;103328.78;;;10.70;61.69
69535;BME280;56754;51.568;5.048;2023-02-14T09:34:22;103325.31;;;10.70;61.55
69535;BME280;56754;51.568;5.048;2023-02-14T09:36:48;103325.06;;;10.72;61.59
69535;BME280;56754;51.568;5.048;2023-02-14T09:39:13;103322.94;;;10.74;61.58
69535;BME280;56754;51.568;5.048;2023-02-14T09:44:27;103325.16;;;10.77;61.65
69535;BME280;56754;51.568;5.048;2023-02-14T09:46:56;103310.94;;;10.76;61.57
69535;BME280;56754;51.568;5.048;2023-02-14T09:49:31;103317.91;;;10.77;61.60
69535;BME280;56754;51.568;5.048;2023-02-14T09:52:00;103320.34;;;10.79;61.59
69535;BME280;56754;51.568;5.048;2023-02-14T09:54:27;103321.13;;;10.79;61.39
69535;BME280;56754;51.568;5.048;2023-02-14T09:59:36;103306.44;;;10.82;61.50
69535;BME280;56754;51.568;5.048;2023-02-14T10:05:19;103305.41;;;10.83;61.57
69535;BME280;56754;51.568;5.048;2023-02-14T10:10:41;103296.06;;;10.85;61.38
69535;BME280;56754;51.568;5.048;2023-02-14T10:13:29;103301.16;;;10.87;61.52
69535;BME280;56754;51.568;5.048;2023-02-14T10:16:02;103301.75;;;10.89;61.43
69535;BME280;56754;51.568;5.048;2023-02-14T10:18:40;103302.53;;;10.89;61.31
69535;BME280;56754;51.568;5.048;2023-02-14T10:21:08;103304.94;;;10.91;61.40
69535;BME280;56754;51.568;5.048;2023-02-14T10:23:42;103299.38;;;10.92;61.29
69535;BME280;56754;51.568;5.048;2023-02-14T10:26:13;103298.06;;;10.95;61.49
69535;BME280;56754;51.568;5.048;2023-02-14T10:28:45;103302.34;;;10.96;61.56
69535;BME280;56754;51.568;5.048;2023-02-14T10:31:41;103298.59;;;10.97;61.60
69535;BME280;56754;51.568;5.048;2023-02-14T10:34:34;103304.50;;;10.99;61.45
69535;BME280;56754;51.568;5.048;2023-02-14T10:56:32;103271.44;;;11.10;61.45
69535;BME280;56754;51.568;5.048;2023-02-14T10:59:15;103273.84;;;11.12;61.20
69535;BME280;56754;51.568;5.048;2023-02-14T11:01:41;103267.47;;;11.13;61.31
69535;BME280;56754;51.568;5.048;2023-02-14T11:04:08;103271.75;;;11.14;61.29
69535;BME280;56754;51.568;5.048;2023-02-14T11:06:34;103270.44;;;11.16;61.09
69535;BME280;56754;51.568;5.048;2023-02-14T11:09:00;103274.72;;;11.18;60.86
69535;BME280;56754;51.568;5.048;2023-02-14T11:11:42;103266.44;;;11.19;61.00
69535;BME280;56754;51.568;5.048;2023-02-14T11:14:33;103266.19;;;11.21;61.20
69535;BME280;56754;51.568;5.048;2023-02-14T11:16:59;103265.38;;;11.20;61.19
69535;BME280;56754;51.568;5.048;2023-02-14T11:19:30;103260.84;;;11.21;61.12
69535;BME280;56754;51.568;5.048;2023-02-14T11:22:00;103262.47;;;11.22;61.33
69535;BME280;56754;51.568;5.048;2023-02-14T11:24:31;103264.63;;;11.25;61.38
69535;BME280;56754;51.568;5.048;2023-02-14T11:32:11;103256.91;;;11.28;61.04
69535;BME280;56754;51.568;5.048;2023-02-14T11:34:40;103256.16;;;11.33;61.74
69535;BME280;56754;51.568;5.048;2023-02-14T11:39:48;103245.22;;;11.39;61.34
69535;BME280;56754;51.568;5.048;2023-02-14T11:42:32;103245.50;;;11.43;61.29
69535;BME280;56754;51.568;5.048;2023-02-14T11:44:58;103246.06;;;11.45;61.13
69535;BME280;56754;51.568;5.048;2023-02-14T11:47:27;103239.91;;;11.45;60.99
69535;BME280;56754;51.568;5.048;2023-02-14T11:50:01;103240.72;;;11.45;61.08
69535;BME280;56754;51.568;5.048;2023-02-14T11:52:27;103233.22;;;11.47;61.09
69535;BME280;56754;51.568;5.048;2023-02-14T11:54:55;103217.97;;;11.48;61.03
69535;BME280;56754;51.568;5.048;2023-02-14T11:57:32;103222.25;;;11.49;61.13
69535;BME280;56754;51.568;5.048;2023-02-14T12:00:00;103223.06;;;11.49;61.20
69535;BME280;56754;51.568;5.048;2023-02-14T12:02:36;103207.78;;;11.50;61.26
69535;BME280;56754;51.568;5.048;2023-02-14T12:07:44;103200.88;;;11.54;61.66
69535;BME280;56754;51.568;5.048;2023-02-14T12:12:51;103199.53;;;11.56;61.73
69535;BME280;56754;51.568;5.048;2023-02-14T12:27:17;103187.88;;;11.73;61.83
69535;BME280;56754;51.568;5.048;2023-02-14T12:29:47;103175.03;;;11.75;61.68
69535;BME280;56754;51.568;5.048;2023-02-14T12:32:20;103171.81;;;11.78;61.60
69535;BME280;56754;51.568;5.048;2023-02-14T12:34:47;103168.63;;;11.81;61.42
69535;BME280;56754;51.568;5.048;2023-02-14T12:37:28;103159.81;;;11.86;61.73
69535;BME280;56754;51.568;5.048;2023-02-14T12:50:52;103134.44;;;12.03;60.93
69535;BME280;56754;51.568;5.048;2023-02-14T12:56:13;103138.25;;;12.13;61.44
69535;BME280;56754;51.568;5.048;2023-02-14T13:10:20;103121.41;;;12.38;60.29
69535;BME280;56754;51.568;5.048;2023-02-14T13:13:08;103120.63;;;12.42;60.46
69535;BME280;56754;51.568;5.048;2023-02-14T13:15:46;103120.09;;;12.45;60.34
69535;BME280;56754;51.568;5.048;2023-02-14T13:18:38;103115.25;;;12.47;60.32
69535;BME280;56754;51.568;5.048;2023-02-14T13:21:12;103114.72;;;12.50;60.43
69535;BME280;56754;51.568;5.048;2023-02-14T13:23:50;103106.44;;;12.52;60.36
69535;BME280;56754;51.568;5.048;2023-02-14T13:26:42;103097.03;;;12.55;60.67
69535;BME280;56754;51.568;5.048;2023-02-14T13:29:11;103095.72;;;12.57;61.27
69535;BME280;56754;51.568;5.048;2023-02-14T13:31:38;103104.28;;;12.59;60.45
69535;BME280;56754;51.568;5.048;2023-02-14T13:34:29;103094.88;;;12.62;60.54
69535;BME280;56754;51.568;5.048;2023-02-14T13:36:58;103102.41;;;12.65;60.54
69535;BME280;56754;51.568;5.048;2023-02-14T13:39:30;103103.75;;;12.67;60.58
69535;BME280;56754;51.568;5.048;2023-02-14T13:41:56;103094.38;;;12.70;60.82
69535;BME280;56754;51.568;5.048;2023-02-14T13:47:03;103095.44;;;12.74;60.44
69535;BME280;56754;51.568;5.048;2023-02-14T13:49:33;103085.50;;;12.74;60.63
69535;BME280;56754;51.568;5.048;2023-02-14T13:52:01;103089.81;;;12.75;61.16
69535;BME280;56754;51.568;5.048;2023-02-14T13:56:57;103090.06;;;12.79;61.17
69535;BME280;56754;51.568;5.048;2023-02-14T13:59:33;103084.41;;;12.81;60.92
69535;BME280;56754;51.568;5.048;2023-02-14T14:04:53;103076.13;;;12.87;60.64
69535;BME280;56754;51.568;5.048;2023-02-14T14:07:24;103074.50;;;12.91;60.74
69535;BME280;56754;51.568;5.048;2023-02-14T14:17:34;103069.38;;;13.05;60.51
69535;BME280;56754;51.568;5.048;2023-02-14T14:20:02;103058.91;;;13.09;60.75
69535;BME280;56754;51.568;5.048;2023-02-14T14:22:28;103060.25;;;13.11;60.34
69535;BME280;56754;51.568;5.048;2023-02-14T14:25:04;103059.72;;;13.14;60.43
69535;BME280;56754;51.568;5.048;2023-02-14T14:27:33;103069.63;;;13.19;60.69
69535;BME280;56754;51.568;5.048;2023-02-14T14:30:02;103054.59;;;13.23;60.58
69535;BME280;56754;51.568;5.048;2023-02-14T14:32:30;103051.38;;;13.26;60.60
69535;BME280;56754;51.568;5.048;2023-02-14T14:34:58;103053.22;;;13.31;60.26
69535;BME280;56754;51.568;5.048;2023-02-14T14:37:27;103049.75;;;13.35;60.27
69535;BME280;56754;51.568;5.048;2023-02-14T14:39:55;103052.13;;;13.42;60.17
69535;BME280;56754;51.568;5.048;2023-02-14T14:42:22;103049.44;;;13.47;60.07
69535;BME280;56754;51.568;5.048;2023-02-14T14:44:58;103041.09;;;13.49;60.12
69535;BME280;56754;51.568;5.048;2023-02-14T14:47:26;103046.75;;;13.52;59.96
69535;BME280;56754;51.568;5.048;2023-02-14T14:50:22;103039.47;;;13.53;60.01
69535;BME280;56754;51.568;5.048;2023-02-14T14:52:50;103038.38;;;13.59;59.87
69535;BME280;56754;51.568;5.048;2023-02-14T14:55:28;103044.00;;;13.62;59.73
69535;BME280;56754;51.568;5.048;2023-02-14T14:57:57;103034.84;;;13.63;59.56
69535;BME280;56754;51.568;5.048;2023-02-14T15:00:24;103047.22;;;13.64;59.63
69535;BME280;56754;51.568;5.048;2023-02-14T15:02:59;103050.94;;;13.69;59.45
69535;BME280;56754;51.568;5.048;2023-02-14T15:05:39;103049.59;;;13.71;59.42
69535;BME280;56754;51.568;5.048;2023-02-14T15:10:55;103045.28;;;13.75;59.38
69535;BME280;56754;51.568;5.048;2023-02-14T15:13:30;103048.50;;;13.77;59.33
69535;BME280;56754;51.568;5.048;2023-02-14T15:15:56;103039.38;;;13.78;59.29
69535;BME280;56754;51.568;5.048;2023-02-14T15:18:22;103042.88;;;13.79;59.41